sensor_id;sensor_type;location;lat;lon;timestamp;temperature;humidity
49829;DHT22;35723;51.194;5.112;2022-08-03T00:01:32;23.80;99.90
49829;DHT22;35723;51.194;5.112;2022-08-03T00:03:57;23.80;99.90
49829;DHT22;35723;51.194;5.112;2022-08-03T00:06:23;23.80;99.90
49829;DHT22;35723;51.194;5.112;2022-08-03T00:08:49;23.80;99.90
49829;DHT22;35723;51.194;5.112;2022-08-03T00:11:14;23.90;99.90
49829;DHT22;35723;51.194;5.112;2022-08-03T00:13:40;23.80;99.90
49829;DHT22;35723;51.194;5.112;2022-08-03T00:16:06;24.00;99.90
49829;DHT22;35723;51.194;5.112;2022-08-03T00:18:31;23.80;99.90
49829;DHT22;35723;51.194;5.112;2022-08-03T00:20:57;23.80;99.90
49829;DHT22;35723;51.194;5.112;2022-08-03T00:23:23;23.70;99.90
49829;DHT22;35723;51.194;5.112;2022-08-03T00:25:48;23.70;99.90
49829;DHT22;35723;51.194;5.112;2022-08-03T00:28:14;23.70;99.90
49829;DHT22;35723;51.194;5.112;2022-08-03T00:30:39;23.70;99.90
49829;DHT22;35723;51.194;5.112;2022-08-03T00:33:05;23.80;99.90
49829;DHT22;35723;51.194;5.112;2022-08-03T00:35:31;23.70;99.90
49829;DHT22;35723;51.194;5.112;2022-08-03T00:37:56;23.60;99.90
49829;DHT22;35723;51.194;5.112;2022-08-03T00:40:22;23.50;99.90
49829;DHT22;35723;51.194;5.112;2022-08-03T00:42:56;23.50;99.90
49829;DHT22;35723;51.194;5.112;2022-08-03T00:45:33;23.50;99.90
49829;DHT22;35723;51.194;5.112;2022-08-03T00:47:59;23.50;99.90
49829;DHT22;35723;51.194;5.112;2022-08-03T00:50:26;23.40;99.90
49829;DHT22;35723;51.194;5.112;2022-08-03T00:52:54;23.40;99.90
49829;DHT22;35723;51.194;5.112;2022-08-03T00:55:20;23.40;99.90
49829;DHT22;35723;51.194;5.112;2022-08-03T00:57:46;23.40;99.90
49829;DHT22;35723;51.194;5.112;2022-08-03T01:00:15;23.40;99.90
49829;DHT22;35723;51.194;5.112;2022-08-03T01:02:41;23.50;99.90
49829;DHT22;35723;51.194;5.112;2022-08-03T01:05:08;23.50;99.90
49829;DHT22;35723;51.194;5.112;2022-08-03T01:07:59;23.50;99.90
49829;DHT22;35723;51.194;5.112;2022-08-03T01:11:02;23.40;99.90
49829;DHT22;35723;51.194;5.112;2022-08-03T01:16:29;23.40;99.90
49829;DHT22;35723;51.194;5.112;2022-08-03T01:30:36;23.10;99.90
49829;DHT22;35723;51.194;5.112;2022-08-03T01:33:06;23.10;99.90
49829;DHT22;35723;51.194;5.112;2022-08-03T01:35:40;23.10;99.90
49829;DHT22;35723;51.194;5.112;2022-08-03T01:38:21;23.10;99.90
49829;DHT22;35723;51.194;5.112;2022-08-03T01:40:51;23.10;99.90
49829;DHT22;35723;51.194;5.112;2022-08-03T01:43:22;23.00;99.90
49829;DHT22;35723;51.194;5.112;2022-08-03T01:45:50;23.10;99.90
49829;DHT22;35723;51.194;5.112;2022-08-03T01:48:16;23.00;99.90
49829;DHT22;35723;51.194;5.112;2022-08-03T01:50:44;22.90;99.90
49829;DHT22;35723;51.194;5.112;2022-08-03T01:53:14;23.00;99.90
49829;DHT22;35723;51.194;5.112;2022-08-03T01:55:42;22.90;99.90
49829;DHT22;35723;51.194;5.112;2022-08-03T01:58:08;22.90;99.90
49829;DHT22;35723;51.194;5.112;2022-08-03T02:00:35;22.90;99.90
49829;DHT22;35723;51.194;5.112;2022-08-03T02:03:04;22.90;99.90
49829;DHT22;35723;51.194;5.112;2022-08-03T02:05:31;22.90;99.90
49829;DHT22;35723;51.194;5.112;2022-08-03T02:07:57;22.90;99.90
49829;DHT22;35723;51.194;5.112;2022-08-03T02:10:25;22.90;99.90
49829;DHT22;35723;51.194;5.112;2022-08-03T02:12:52;22.80;99.90
49829;DHT22;35723;51.194;5.112;2022-08-03T02:15:19;22.80;99.90
49829;DHT22;35723;51.194;5.112;2022-08-03T02:17:46;22.70;99.90
49829;DHT22;35723;51.194;5.112;2022-08-03T02:20:13;22.70;99.90
49829;DHT22;35723;51.194;5.112;2022-08-03T02:22:41;22.70;99.90
49829;DHT22;35723;51.194;5.112;2022-08-03T02:25:09;22.70;99.90
49829;DHT22;35723;51.194;5.112;2022-08-03T02:27:38;22.60;99.90
49829;DHT22;35723;51.194;5.112;2022-08-03T02:30:07;22.60;99.90
49829;DHT22;35723;51.194;5.112;2022-08-03T02:32:35;22.60;99.90
49829;DHT22;35723;51.194;5.112;2022-08-03T02:35:03;22.60;99.90
49829;DHT22;35723;51.194;5.112;2022-08-03T02:37:33;22.70;99.90
49829;DHT22;35723;51.194;5.112;2022-08-03T02:40:04;22.70;99.90
49829;DHT22;35723;51.194;5.112;2022-08-03T02:42:32;22.80;99.90
49829;DHT22;35723;51.194;5.112;2022-08-03T02:45:01;22.80;99.90
49829;DHT22;35723;51.194;5.112;2022-08-03T02:47:27;22.80;99.90
49829;DHT22;35723;51.194;5.112;2022-08-03T02:49:56;22.80;99.90
49829;DHT22;35723;51.194;5.112;2022-08-03T02:52:25;22.60;99.90
49829;DHT22;35723;51.194;5.112;2022-08-03T02:54:55;22.50;99.90
49829;DHT22;35723;51.194;5.112;2022-08-03T02:57:22;22.40;99.90
49829;DHT22;35723;51.194;5.112;2022-08-03T02:59:50;22.30;99.90
49829;DHT22;35723;51.194;5.112;2022-08-03T03:02:17;22.20;99.90
49829;DHT22;35723;51.194;5.112;2022-08-03T03:04:44;22.10;99.90
49829;DHT22;35723;51.194;5.112;2022-08-03T03:07:12;22.20;99.90
49829;DHT22;35723;51.194;5.112;2022-08-03T03:09:39;22.10;99.90
49829;DHT22;35723;51.194;5.112;2022-08-03T03:12:07;22.10;99.90
49829;DHT22;35723;51.194;5.112;2022-08-03T03:14:35;22.20;99.90
49829;DHT22;35723;51.194;5.112;2022-08-03T03:17:01;22.20;99.90
49829;DHT22;35723;51.194;5.112;2022-08-03T03:19:29;22.20;99.90
49829;DHT22;35723;51.194;5.112;2022-08-03T03:22:01;22.10;99.90
49829;DHT22;35723;51.194;5.112;2022-08-03T03:24:28;22.10;99.90
49829;DHT22;35723;51.194;5.112;2022-08-03T03:26:55;22.10;99.90
49829;DHT22;35723;51.194;5.112;2022-08-03T03:29:21;22.10;99.90
49829;DHT22;35723;51.194;5.112;2022-08-03T03:31:47;22.10;99.90
49829;DHT22;35723;51.194;5.112;2022-08-03T03:34:13;22.20;99.90
49829;DHT22;35723;51.194;5.112;2022-08-03T03:36:39;22.20;99.90
49829;DHT22;35723;51.194;5.112;2022-08-03T03:39:04;22.30;99.90
49829;DHT22;35723;51.194;5.112;2022-08-03T03:41:30;22.30;99.90
49829;DHT22;35723;51.194;5.112;2022-08-03T03:43:56;22.20;99.90
49829;DHT22;35723;51.194;5.112;2022-08-03T03:46:22;22.30;99.90
49829;DHT22;35723;51.194;5.112;2022-08-03T03:48:48;22.20;99.90
49829;DHT22;35723;51.194;5.112;2022-08-03T03:51:14;22.10;99.90
49829;DHT22;35723;51.194;5.112;2022-08-03T03:53:40;22.10;99.90
49829;DHT22;35723;51.194;5.112;2022-08-03T03:56:06;22.10;99.90
49829;DHT22;35723;51.194;5.112;2022-08-03T03:58:32;22.10;99.90
49829;DHT22;35723;51.194;5.112;2022-08-03T04:00:58;22.10;99.90
49829;DHT22;35723;51.194;5.112;2022-08-03T04:03:23;22.20;99.90
49829;DHT22;35723;51.194;5.112;2022-08-03T04:05:49;22.20;99.90
49829;DHT22;35723;51.194;5.112;2022-08-03T04:08:34;22.10;99.90
49829;DHT22;35723;51.194;5.112;2022-08-03T04:11:40;22.10;99.90
49829;DHT22;35723;51.194;5.112;2022-08-03T04:14:28;22.10;99.90
49829;DHT22;35723;51.194;5.112;2022-08-03T04:17:04;22.00;99.90
49829;DHT22;35723;51.194;5.112;2022-08-03T04:19:36;21.90;99.90
49829;DHT22;35723;51.194;5.112;2022-08-03T04:22:05;21.70;99.90
49829;DHT22;35723;51.194;5.112;2022-08-03T04:24:50;21.60;99.90
49829;DHT22;35723;51.194;5.112;2022-08-03T04:27:20;21.70;99.90
49829;DHT22;35723;51.194;5.112;2022-08-03T04:29:51;21.70;99.90
49829;DHT22;35723;51.194;5.112;2022-08-03T04:32:18;21.80;99.90
49829;DHT22;35723;51.194;5.112;2022-08-03T04:34:45;21.90;99.90
49829;DHT22;35723;51.194;5.112;2022-08-03T04:37:16;22.00;99.90
49829;DHT22;35723;51.194;5.112;2022-08-03T04:39:43;21.90;99.90
49829;DHT22;35723;51.194;5.112;2022-08-03T04:42:13;21.90;99.90
49829;DHT22;35723;51.194;5.112;2022-08-03T04:44:41;21.70;99.90
49829;DHT22;35723;51.194;5.112;2022-08-03T04:47:08;21.90;99.90
49829;DHT22;35723;51.194;5.112;2022-08-03T04:49:35;21.70;99.90
49829;DHT22;35723;51.194;5.112;2022-08-03T04:52:03;21.60;99.90
49829;DHT22;35723;51.194;5.112;2022-08-03T04:54:29;21.80;99.90
49829;DHT22;35723;51.194;5.112;2022-08-03T04:56:55;21.80;99.90
49829;DHT22;35723;51.194;5.112;2022-08-03T04:59:21;21.70;99.90
49829;DHT22;35723;51.194;5.112;2022-08-03T05:01:46;21.70;99.90
49829;DHT22;35723;51.194;5.112;2022-08-03T05:04:12;21.70;99.90
49829;DHT22;35723;51.194;5.112;2022-08-03T05:06:38;21.70;99.90
49829;DHT22;35723;51.194;5.112;2022-08-03T05:09:04;21.70;99.90
49829;DHT22;35723;51.194;5.112;2022-08-03T05:11:30;21.60;99.90
49829;DHT22;35723;51.194;5.112;2022-08-03T05:13:55;21.60;99.90
49829;DHT22;35723;51.194;5.112;2022-08-03T05:16:21;21.50;99.90
49829;DHT22;35723;51.194;5.112;2022-08-03T05:18:47;21.60;99.90
49829;DHT22;35723;51.194;5.112;2022-08-03T05:21:13;21.80;99.90
49829;DHT22;35723;51.194;5.112;2022-08-03T05:23:39;21.60;99.90
49829;DHT22;35723;51.194;5.112;2022-08-03T05:26:05;21.40;99.90
49829;DHT22;35723;51.194;5.112;2022-08-03T05:28:31;21.50;99.90
49829;DHT22;35723;51.194;5.112;2022-08-03T05:30:56;21.40;99.90
49829;DHT22;35723;51.194;5.112;2022-08-03T05:33:22;21.30;99.90
49829;DHT22;35723;51.194;5.112;2022-08-03T05:35:48;21.30;99.90
49829;DHT22;35723;51.194;5.112;2022-08-03T05:38:13;21.40;99.90
49829;DHT22;35723;51.194;5.112;2022-08-03T05:40:39;21.50;99.90
49829;DHT22;35723;51.194;5.112;2022-08-03T05:43:05;21.60;99.90
49829;DHT22;35723;51.194;5.112;2022-08-03T05:45:30;21.70;99.90
49829;DHT22;35723;51.194;5.112;2022-08-03T05:47:56;21.80;99.90
49829;DHT22;35723;51.194;5.112;2022-08-03T05:50:22;21.60;99.90
49829;DHT22;35723;51.194;5.112;2022-08-03T05:52:47;21.60;99.90
49829;DHT22;35723;51.194;5.112;2022-08-03T05:55:13;21.60;99.90
49829;DHT22;35723;51.194;5.112;2022-08-03T05:57:39;21.60;99.90
49829;DHT22;35723;51.194;5.112;2022-08-03T06:00:07;21.70;99.90
49829;DHT22;35723;51.194;5.112;2022-08-03T06:02:33;21.70;99.90
49829;DHT22;35723;51.194;5.112;2022-08-03T06:04:59;21.80;99.90
49829;DHT22;35723;51.194;5.112;2022-08-03T06:07:25;21.90;99.90
49829;DHT22;35723;51.194;5.112;2022-08-03T06:09:51;21.90;99.90
49829;DHT22;35723;51.194;5.112;2022-08-03T06:12:17;22.00;99.90
49829;DHT22;35723;51.194;5.112;2022-08-03T06:14:42;22.00;99.90
49829;DHT22;35723;51.194;5.112;2022-08-03T06:17:08;22.10;99.90
49829;DHT22;35723;51.194;5.112;2022-08-03T06:19:33;22.10;99.90
49829;DHT22;35723;51.194;5.112;2022-08-03T06:21:59;22.00;99.90
49829;DHT22;35723;51.194;5.112;2022-08-03T06:24:25;22.20;99.90
49829;DHT22;35723;51.194;5.112;2022-08-03T06:26:50;22.40;99.90
49829;DHT22;35723;51.194;5.112;2022-08-03T06:29:16;22.50;99.90
49829;DHT22;35723;51.194;5.112;2022-08-03T06:31:41;22.50;99.90
49829;DHT22;35723;51.194;5.112;2022-08-03T06:34:07;22.50;99.90
49829;DHT22;35723;51.194;5.112;2022-08-03T06:36:33;22.50;99.90
49829;DHT22;35723;51.194;5.112;2022-08-03T06:38:59;22.50;99.90
49829;DHT22;35723;51.194;5.112;2022-08-03T06:41:25;22.50;99.90
49829;DHT22;35723;51.194;5.112;2022-08-03T06:43:51;22.60;99.90
49829;DHT22;35723;51.194;5.112;2022-08-03T06:46:17;22.50;99.90
49829;DHT22;35723;51.194;5.112;2022-08-03T06:48:42;22.40;99.90
49829;DHT22;35723;51.194;5.112;2022-08-03T06:51:08;22.50;99.90
49829;DHT22;35723;51.194;5.112;2022-08-03T06:53:34;22.70;99.90
49829;DHT22;35723;51.194;5.112;2022-08-03T06:56:00;22.90;99.90
49829;DHT22;35723;51.194;5.112;2022-08-03T06:58:27;22.80;99.90
49829;DHT22;35723;51.194;5.112;2022-08-03T07:00:53;22.80;99.90
49829;DHT22;35723;51.194;5.112;2022-08-03T07:03:18;23.00;99.90
49829;DHT22;35723;51.194;5.112;2022-08-03T07:05:44;23.10;99.90
49829;DHT22;35723;51.194;5.112;2022-08-03T07:08:13;23.30;99.90
49829;DHT22;35723;51.194;5.112;2022-08-03T07:10:39;23.30;99.90
49829;DHT22;35723;51.194;5.112;2022-08-03T07:13:05;23.40;99.90
49829;DHT22;35723;51.194;5.112;2022-08-03T07:15:31;23.40;99.90
49829;DHT22;35723;51.194;5.112;2022-08-03T07:17:56;23.50;99.90
49829;DHT22;35723;51.194;5.112;2022-08-03T07:20:22;23.70;99.90
49829;DHT22;35723;51.194;5.112;2022-08-03T07:22:48;23.80;99.90
49829;DHT22;35723;51.194;5.112;2022-08-03T07:25:14;23.90;99.90
49829;DHT22;35723;51.194;5.112;2022-08-03T07:27:44;23.70;99.90
49829;DHT22;35723;51.194;5.112;2022-08-03T07:30:10;23.80;99.90
49829;DHT22;35723;51.194;5.112;2022-08-03T07:32:36;24.00;99.90
49829;DHT22;35723;51.194;5.112;2022-08-03T07:35:03;24.10;99.90
49829;DHT22;35723;51.194;5.112;2022-08-03T07:37:29;24.00;99.90
49829;DHT22;35723;51.194;5.112;2022-08-03T07:39:55;23.80;99.90
49829;DHT22;35723;51.194;5.112;2022-08-03T07:42:21;23.70;99.90
49829;DHT22;35723;51.194;5.112;2022-08-03T07:44:48;23.90;99.90
49829;DHT22;35723;51.194;5.112;2022-08-03T07:47:18;23.80;99.90
49829;DHT22;35723;51.194;5.112;2022-08-03T07:49:44;23.90;99.90
49829;DHT22;35723;51.194;5.112;2022-08-03T07:52:10;24.10;99.90
49829;DHT22;35723;51.194;5.112;2022-08-03T07:54:54;24.30;99.90
49829;DHT22;35723;51.194;5.112;2022-08-03T07:57:19;24.20;99.90
49829;DHT22;35723;51.194;5.112;2022-08-03T07:59:46;24.10;99.90
49829;DHT22;35723;51.194;5.112;2022-08-03T08:02:12;24.30;99.90
49829;DHT22;35723;51.194;5.112;2022-08-03T08:04:38;24.30;99.90
49829;DHT22;35723;51.194;5.112;2022-08-03T08:07:04;24.40;99.90
49829;DHT22;35723;51.194;5.112;2022-08-03T08:09:30;24.70;99.90
49829;DHT22;35723;51.194;5.112;2022-08-03T08:11:55;24.90;99.90
49829;DHT22;35723;51.194;5.112;2022-08-03T08:14:21;25.00;99.90
49829;DHT22;35723;51.194;5.112;2022-08-03T08:16:46;25.10;99.90
49829;DHT22;35723;51.194;5.112;2022-08-03T08:19:14;25.10;99.90
49829;DHT22;35723;51.194;5.112;2022-08-03T08:21:41;25.00;99.90
49829;DHT22;35723;51.194;5.112;2022-08-03T08:24:07;24.60;99.90
49829;DHT22;35723;51.194;5.112;2022-08-03T08:26:32;24.60;99.90
49829;DHT22;35723;51.194;5.112;2022-08-03T08:28:58;24.60;99.90
49829;DHT22;35723;51.194;5.112;2022-08-03T08:31:24;24.80;99.90
49829;DHT22;35723;51.194;5.112;2022-08-03T08:33:49;24.90;99.90
49829;DHT22;35723;51.194;5.112;2022-08-03T08:36:15;24.70;99.90
49829;DHT22;35723;51.194;5.112;2022-08-03T08:38:42;25.10;99.90
49829;DHT22;35723;51.194;5.112;2022-08-03T08:41:10;25.20;99.90
49829;DHT22;35723;51.194;5.112;2022-08-03T08:43:37;25.60;99.90
49829;DHT22;35723;51.194;5.112;2022-08-03T08:46:04;26.00;99.90
49829;DHT22;35723;51.194;5.112;2022-08-03T08:48:32;26.30;99.90
49829;DHT22;35723;51.194;5.112;2022-08-03T08:51:00;26.40;99.90
49829;DHT22;35723;51.194;5.112;2022-08-03T08:53:27;26.30;99.90
49829;DHT22;35723;51.194;5.112;2022-08-03T08:55:58;26.40;99.90
49829;DHT22;35723;51.194;5.112;2022-08-03T08:58:26;26.50;99.90
49829;DHT22;35723;51.194;5.112;2022-08-03T09:00:52;26.70;99.90
49829;DHT22;35723;51.194;5.112;2022-08-03T09:03:19;26.80;99.90
49829;DHT22;35723;51.194;5.112;2022-08-03T09:05:45;26.90;99.90
49829;DHT22;35723;51.194;5.112;2022-08-03T09:08:11;27.20;99.90
49829;DHT22;35723;51.194;5.112;2022-08-03T09:10:36;27.40;99.90
49829;DHT22;35723;51.194;5.112;2022-08-03T09:13:02;27.40;99.90
49829;DHT22;35723;51.194;5.112;2022-08-03T09:15:30;27.50;99.90
49829;DHT22;35723;51.194;5.112;2022-08-03T09:17:58;27.70;99.90
49829;DHT22;35723;51.194;5.112;2022-08-03T09:20:26;27.70;99.90
49829;DHT22;35723;51.194;5.112;2022-08-03T09:22:58;27.80;99.90
49829;DHT22;35723;51.194;5.112;2022-08-03T09:28:07;27.80;99.90
49829;DHT22;35723;51.194;5.112;2022-08-03T09:30:34;28.10;99.90
49829;DHT22;35723;51.194;5.112;2022-08-03T09:33:07;28.20;99.90
49829;DHT22;35723;51.194;5.112;2022-08-03T09:35:43;28.30;99.90
49829;DHT22;35723;51.194;5.112;2022-08-03T09:38:13;28.60;99.80
49829;DHT22;35723;51.194;5.112;2022-08-03T09:40:40;28.90;98.90
49829;DHT22;35723;51.194;5.112;2022-08-03T09:43:06;28.90;98.70
49829;DHT22;35723;51.194;5.112;2022-08-03T09:45:33;28.60;99.50
49829;DHT22;35723;51.194;5.112;2022-08-03T09:48:25;28.50;99.20
49829;DHT22;35723;51.194;5.112;2022-08-03T09:50:53;28.90;99.30
49829;DHT22;35723;51.194;5.112;2022-08-03T09:53:19;29.20;99.00
49829;DHT22;35723;51.194;5.112;2022-08-03T09:56:01;29.40;98.00
49829;DHT22;35723;51.194;5.112;2022-08-03T09:58:28;28.70;98.30
49829;DHT22;35723;51.194;5.112;2022-08-03T10:01:05;28.10;98.60
49829;DHT22;35723;51.194;5.112;2022-08-03T10:03:34;28.40;98.80
49829;DHT22;35723;51.194;5.112;2022-08-03T10:06:14;28.90;98.40
49829;DHT22;35723;51.194;5.112;2022-08-03T10:08:40;29.30;97.50
49829;DHT22;35723;51.194;5.112;2022-08-03T10:11:06;29.50;97.10
49829;DHT22;35723;51.194;5.112;2022-08-03T10:13:32;29.50;97.40
49829;DHT22;35723;51.194;5.112;2022-08-03T10:15:58;29.40;97.40
49829;DHT22;35723;51.194;5.112;2022-08-03T10:18:24;29.50;97.00
49829;DHT22;35723;51.194;5.112;2022-08-03T10:20:59;29.70;97.60
49829;DHT22;35723;51.194;5.112;2022-08-03T10:23:27;29.20;97.30
49829;DHT22;35723;51.194;5.112;2022-08-03T10:25:57;29.30;98.70
49829;DHT22;35723;51.194;5.112;2022-08-03T10:28:32;29.60;97.90
49829;DHT22;35723;51.194;5.112;2022-08-03T10:30:59;30.00;96.90
49829;DHT22;35723;51.194;5.112;2022-08-03T10:33:27;29.80;97.60
49829;DHT22;35723;51.194;5.112;2022-08-03T10:35:57;29.70;97.60
49829;DHT22;35723;51.194;5.112;2022-08-03T10:38:39;29.60;97.50
49829;DHT22;35723;51.194;5.112;2022-08-03T10:41:07;30.00;97.40
49829;DHT22;35723;51.194;5.112;2022-08-03T10:43:46;30.50;96.80
49829;DHT22;35723;51.194;5.112;2022-08-03T10:46:18;30.50;96.10
49829;DHT22;35723;51.194;5.112;2022-08-03T10:48:46;30.40;97.00
49829;DHT22;35723;51.194;5.112;2022-08-03T10:51:13;30.70;96.60
49829;DHT22;35723;51.194;5.112;2022-08-03T10:53:41;30.60;96.00
49829;DHT22;35723;51.194;5.112;2022-08-03T11:02:02;30.60;96.70
49829;DHT22;35723;51.194;5.112;2022-08-03T11:04:33;30.90;95.60
49829;DHT22;35723;51.194;5.112;2022-08-03T11:09:53;31.40;95.30
49829;DHT22;35723;51.194;5.112;2022-08-03T11:12:29;31.10;95.60
49829;DHT22;35723;51.194;5.112;2022-08-03T11:14:57;31.30;95.40
49829;DHT22;35723;51.194;5.112;2022-08-03T11:17:23;31.50;95.10
49829;DHT22;35723;51.194;5.112;2022-08-03T11:19:51;31.80;94.90
49829;DHT22;35723;51.194;5.112;2022-08-03T11:22:19;31.40;94.60
49829;DHT22;35723;51.194;5.112;2022-08-03T11:27:36;31.20;95.00
49829;DHT22;35723;51.194;5.112;2022-08-03T11:37:35;32.20;94.00
49829;DHT22;35723;51.194;5.112;2022-08-03T11:40:01;31.90;93.90
49829;DHT22;35723;51.194;5.112;2022-08-03T11:44:58;32.10;93.70
49829;DHT22;35723;51.194;5.112;2022-08-03T11:47:27;32.10;92.90
49829;DHT22;35723;51.194;5.112;2022-08-03T11:49:56;31.40;93.30
49829;DHT22;35723;51.194;5.112;2022-08-03T11:52:23;30.90;94.20
49829;DHT22;35723;51.194;5.112;2022-08-03T11:54:53;30.60;94.80
49829;DHT22;35723;51.194;5.112;2022-08-03T11:57:30;30.50;94.70
49829;DHT22;35723;51.194;5.112;2022-08-03T11:59:55;30.10;95.00
49829;DHT22;35723;51.194;5.112;2022-08-03T12:02:21;30.50;95.30
49829;DHT22;35723;51.194;5.112;2022-08-03T12:04:50;30.80;94.90
49829;DHT22;35723;51.194;5.112;2022-08-03T12:07:16;31.10;94.40
49829;DHT22;35723;51.194;5.112;2022-08-03T12:09:43;31.60;93.90
49829;DHT22;35723;51.194;5.112;2022-08-03T12:12:08;31.70;93.80
49829;DHT22;35723;51.194;5.112;2022-08-03T12:14:34;31.20;93.80
49829;DHT22;35723;51.194;5.112;2022-08-03T12:17:00;31.00;94.70
49829;DHT22;35723;51.194;5.112;2022-08-03T12:19:26;31.40;94.30
49829;DHT22;35723;51.194;5.112;2022-08-03T12:21:51;31.70;93.70
49829;DHT22;35723;51.194;5.112;2022-08-03T12:24:17;32.20;94.00
49829;DHT22;35723;51.194;5.112;2022-08-03T12:26:45;32.60;92.30
49829;DHT22;35723;51.194;5.112;2022-08-03T12:29:21;31.90;92.30
49829;DHT22;35723;51.194;5.112;2022-08-03T12:31:48;31.20;93.10
49829;DHT22;35723;51.194;5.112;2022-08-03T12:34:14;31.10;93.50
49829;DHT22;35723;51.194;5.112;2022-08-03T12:36:54;31.40;93.70
49829;DHT22;35723;51.194;5.112;2022-08-03T12:39:26;31.80;92.50
49829;DHT22;35723;51.194;5.112;2022-08-03T12:41:55;32.20;93.00
49829;DHT22;35723;51.194;5.112;2022-08-03T12:44:34;32.50;92.20
49829;DHT22;35723;51.194;5.112;2022-08-03T12:47:01;32.70;91.70
49829;DHT22;35723;51.194;5.112;2022-08-03T12:49:27;32.90;92.00
49829;DHT22;35723;51.194;5.112;2022-08-03T12:54:21;32.80;90.90
49829;DHT22;35723;51.194;5.112;2022-08-03T12:57:06;32.90;91.00
49829;DHT22;35723;51.194;5.112;2022-08-03T12:59:35;33.10;90.70
49829;DHT22;35723;51.194;5.112;2022-08-03T13:02:03;33.40;90.40
49829;DHT22;35723;51.194;5.112;2022-08-03T13:04:33;33.20;90.70
49829;DHT22;35723;51.194;5.112;2022-08-03T13:07:01;33.00;90.40
49829;DHT22;35723;51.194;5.112;2022-08-03T13:09:28;32.90;90.80
49829;DHT22;35723;51.194;5.112;2022-08-03T13:12:10;33.00;91.10
49829;DHT22;35723;51.194;5.112;2022-08-03T13:14:37;33.20;90.30
49829;DHT22;35723;51.194;5.112;2022-08-03T13:17:03;32.90;90.40
49829;DHT22;35723;51.194;5.112;2022-08-03T13:19:31;32.50;90.30
49829;DHT22;35723;51.194;5.112;2022-08-03T13:21:57;32.60;91.40
49829;DHT22;35723;51.194;5.112;2022-08-03T13:24:22;32.50;90.60
49829;DHT22;35723;51.194;5.112;2022-08-03T13:26:48;32.10;91.10
49829;DHT22;35723;51.194;5.112;2022-08-03T13:29:15;32.40;91.10
49829;DHT22;35723;51.194;5.112;2022-08-03T13:31:40;32.00;90.80
49829;DHT22;35723;51.194;5.112;2022-08-03T13:34:06;31.70;91.50
49829;DHT22;35723;51.194;5.112;2022-08-03T13:36:32;31.80;91.40
49829;DHT22;35723;51.194;5.112;2022-08-03T13:38:57;31.80;91.20
49829;DHT22;35723;51.194;5.112;2022-08-03T13:41:23;31.80;91.10
49829;DHT22;35723;51.194;5.112;2022-08-03T13:43:49;32.20;91.30
49829;DHT22;35723;51.194;5.112;2022-08-03T13:46:14;32.70;90.80
49829;DHT22;35723;51.194;5.112;2022-08-03T13:48:40;33.00;90.50
49829;DHT22;35723;51.194;5.112;2022-08-03T13:51:05;33.50;88.50
49829;DHT22;35723;51.194;5.112;2022-08-03T13:53:31;33.00;86.80
49829;DHT22;35723;51.194;5.112;2022-08-03T13:55:57;32.70;90.10
49829;DHT22;35723;51.194;5.112;2022-08-03T13:58:22;32.90;88.20
49829;DHT22;35723;51.194;5.112;2022-08-03T14:00:48;33.20;88.50
49829;DHT22;35723;51.194;5.112;2022-08-03T14:03:13;33.40;87.30
49829;DHT22;35723;51.194;5.112;2022-08-03T14:05:39;33.60;87.20
49829;DHT22;35723;51.194;5.112;2022-08-03T14:08:05;33.60;88.50
49829;DHT22;35723;51.194;5.112;2022-08-03T14:10:36;34.00;87.30
49829;DHT22;35723;51.194;5.112;2022-08-03T14:13:03;33.40;86.70
49829;DHT22;35723;51.194;5.112;2022-08-03T14:15:30;33.60;87.50
49829;DHT22;35723;51.194;5.112;2022-08-03T14:17:56;33.60;87.10
49829;DHT22;35723;51.194;5.112;2022-08-03T14:20:21;33.40;86.80
49829;DHT22;35723;51.194;5.112;2022-08-03T14:22:47;33.30;88.30
49829;DHT22;35723;51.194;5.112;2022-08-03T14:25:13;33.50;88.70
49829;DHT22;35723;51.194;5.112;2022-08-03T14:27:38;33.90;87.10
49829;DHT22;35723;51.194;5.112;2022-08-03T14:30:04;34.20;85.30
49829;DHT22;35723;51.194;5.112;2022-08-03T14:32:30;33.90;83.80
49829;DHT22;35723;51.194;5.112;2022-08-03T14:34:56;33.60;86.00
49829;DHT22;35723;51.194;5.112;2022-08-03T14:37:21;33.90;84.70
49829;DHT22;35723;51.194;5.112;2022-08-03T14:39:47;33.90;83.70
49829;DHT22;35723;51.194;5.112;2022-08-03T14:42:13;34.00;83.70
49829;DHT22;35723;51.194;5.112;2022-08-03T14:44:40;34.10;85.00
49829;DHT22;35723;51.194;5.112;2022-08-03T14:47:06;34.10;83.30
49829;DHT22;35723;51.194;5.112;2022-08-03T14:49:31;34.30;82.80
49829;DHT22;35723;51.194;5.112;2022-08-03T14:51:57;34.20;83.30
49829;DHT22;35723;51.194;5.112;2022-08-03T14:54:23;33.80;83.90
49829;DHT22;35723;51.194;5.112;2022-08-03T14:56:49;33.80;83.30
49829;DHT22;35723;51.194;5.112;2022-08-03T14:59:15;33.80;83.40
49829;DHT22;35723;51.194;5.112;2022-08-03T15:01:40;33.60;83.30
49829;DHT22;35723;51.194;5.112;2022-08-03T15:04:06;33.30;85.80
49829;DHT22;35723;51.194;5.112;2022-08-03T15:06:31;33.50;85.00
49829;DHT22;35723;51.194;5.112;2022-08-03T15:08:57;33.70;84.70
49829;DHT22;35723;51.194;5.112;2022-08-03T15:11:22;33.90;83.40
49829;DHT22;35723;51.194;5.112;2022-08-03T15:13:48;34.00;81.90
49829;DHT22;35723;51.194;5.112;2022-08-03T15:16:14;33.90;82.10
49829;DHT22;35723;51.194;5.112;2022-08-03T15:18:39;33.70;82.20
49829;DHT22;35723;51.194;5.112;2022-08-03T15:21:05;33.60;83.60
49829;DHT22;35723;51.194;5.112;2022-08-03T15:23:31;33.70;83.00
49829;DHT22;35723;51.194;5.112;2022-08-03T15:25:57;33.80;82.30
49829;DHT22;35723;51.194;5.112;2022-08-03T15:28:22;33.80;82.30
49829;DHT22;35723;51.194;5.112;2022-08-03T15:30:51;33.80;82.10
49829;DHT22;35723;51.194;5.112;2022-08-03T15:33:16;33.70;81.20
49829;DHT22;35723;51.194;5.112;2022-08-03T15:35:42;33.10;83.40
49829;DHT22;35723;51.194;5.112;2022-08-03T15:38:08;33.00;83.60
49829;DHT22;35723;51.194;5.112;2022-08-03T15:40:34;32.90;82.80
49829;DHT22;35723;51.194;5.112;2022-08-03T15:42:59;32.90;83.40
49829;DHT22;35723;51.194;5.112;2022-08-03T15:45:26;32.40;84.00
49829;DHT22;35723;51.194;5.112;2022-08-03T15:47:51;32.60;84.90
49829;DHT22;35723;51.194;5.112;2022-08-03T15:50:17;32.60;84.20
49829;DHT22;35723;51.194;5.112;2022-08-03T15:52:43;32.50;83.00
49829;DHT22;35723;51.194;5.112;2022-08-03T15:55:09;32.30;83.60
49829;DHT22;35723;51.194;5.112;2022-08-03T15:57:34;32.20;83.60
49829;DHT22;35723;51.194;5.112;2022-08-03T16:00:06;32.40;83.40
49829;DHT22;35723;51.194;5.112;2022-08-03T16:02:32;32.50;82.90
49829;DHT22;35723;51.194;5.112;2022-08-03T16:04:58;32.70;82.70
49829;DHT22;35723;51.194;5.112;2022-08-03T16:07:24;33.10;81.30
49829;DHT22;35723;51.194;5.112;2022-08-03T16:10:13;33.20;81.00
49829;DHT22;35723;51.194;5.112;2022-08-03T16:12:38;33.30;80.30
49829;DHT22;35723;51.194;5.112;2022-08-03T16:15:05;33.00;81.60